createdAt,value
2022-08-08T00:02:03.697Z,100164.00
2022-08-08T00:04:40.378Z,100162.56
2022-08-08T00:07:23.789Z,100151.47
2022-08-08T00:10:08.147Z,100156.78
2022-08-08T00:12:48.533Z,100160.41
2022-08-08T00:15:57.104Z,100165.94
2022-08-08T00:18:27.180Z,100165.09
2022-08-08T00:20:59.217Z,100157.56
2022-08-08T00:23:43.404Z,100152.25
2022-08-08T00:26:29.385Z,100155.50
2022-08-08T00:29:08.104Z,100156.53
2022-08-08T00:32:16.410Z,100158.94
2022-08-08T00:35:10.316Z,100160.97
2022-08-08T00:38:06.558Z,100164.69
2022-08-08T00:41:14.471Z,100179.47
2022-08-08T00:44:25.820Z,100173.25
2022-08-08T00:47:36.770Z,100178.28
2022-08-08T00:51:06.958Z,100176.38
2022-08-08T00:54:13.718Z,100173.88
2022-08-08T00:57:19.906Z,100168.75
2022-08-08T01:00:11.769Z,100155.91
2022-08-08T01:04:02.252Z,100182.97
2022-08-08T01:07:05.761Z,100173.22
2022-08-08T01:10:15.529Z,100168.59
2022-08-08T01:13:23.059Z,100173.56
2022-08-08T01:16:37.353Z,100174.44
2022-08-08T01:19:51.968Z,100180.47
2022-08-08T01:22:58.274Z,100173.00
2022-08-08T01:26:11.429Z,100168.09
2022-08-08T01:29:17.827Z,100164.19
2022-08-08T01:32:34.664Z,100166.28
2022-08-08T01:35:29.592Z,100174.16
2022-08-08T01:38:20.908Z,100175.19
2022-08-08T01:41:04.432Z,100160.34
2022-08-08T01:43:53.013Z,100164.56
2022-08-08T01:46:42.284Z,100165.28
2022-08-08T01:49:37.809Z,100167.31
2022-08-08T01:54:29.804Z,100162.66
2022-08-08T01:56:26.608Z,100167.72
2022-08-08T01:58:46.502Z,100175.19
2022-08-08T02:02:02.976Z,100164.19
2022-08-08T02:04:47.782Z,100172.63
2022-08-08T02:07:41.503Z,100166.25
2022-08-08T02:10:37.297Z,100167.53
2022-08-08T02:13:54.623Z,100163.63
2022-08-08T02:16:22.917Z,100161.97
2022-08-08T02:19:26.845Z,100167.56
2022-08-08T02:22:20.286Z,100168.19
2022-08-08T02:25:11.704Z,100168.84
2022-08-08T02:27:56.829Z,100168.31
2022-08-08T02:30:50.017Z,100176.38
2022-08-08T02:34:08.140Z,100173.09
2022-08-08T02:36:56.314Z,100156.69
2022-08-08T02:40:00.191Z,100164.25
2022-08-08T02:44:39.377Z,100163.00
2022-08-08T02:46:38.173Z,100160.41
2022-08-08T02:49:53.758Z,100182.06
2022-08-08T02:52:50.958Z,100182.13
2022-08-08T02:56:08.640Z,100180.88
2022-08-08T02:59:56.953Z,100189.53
2022-08-08T03:03:01.585Z,100188.56
2022-08-08T03:06:13.262Z,100193.59
2022-08-08T03:09:33.136Z,100203.81
2022-08-08T03:13:01.351Z,100204.41
2022-08-08T03:16:08.146Z,100206.19
2022-08-08T03:18:53.899Z,100209.13
2022-08-08T03:21:27.070Z,100209.06
2022-08-08T03:24:12.587Z,100219.25
2022-08-08T03:26:53.536Z,100219.41
2022-08-08T03:29:55.031Z,100215.19
2022-08-08T03:32:31.413Z,100209.00
2022-08-08T03:35:01.748Z,100213.41
2022-08-08T03:38:54.775Z,100222.94
2022-08-08T03:40:30.651Z,100216.53
2022-08-08T03:43:16.790Z,100232.16
2022-08-08T03:46:05.066Z,100228.59
2022-08-08T03:49:55.109Z,100231.16
2022-08-08T03:51:40.540Z,100247.63
2022-08-08T03:54:40.732Z,100145.78
2022-08-08T03:58:30.524Z,100236.78
2022-08-08T04:00:18.311Z,100243.34
2022-08-08T04:02:58.291Z,100140.00
2022-08-08T04:05:30.501Z,100168.34
2022-08-08T04:08:10.070Z,100141.50
2022-08-08T04:10:40.179Z,100241.09
2022-08-08T04:13:18.900Z,100204.81
2022-08-08T04:16:03.822Z,100147.41
2022-08-08T04:18:48.725Z,100249.09
2022-08-08T04:21:26.004Z,100193.97
2022-08-08T04:24:11.666Z,100234.66
2022-08-08T04:26:57.219Z,100251.28
2022-08-08T04:29:33.258Z,100186.00
2022-08-08T04:32:10.562Z,100258.81
2022-08-08T04:34:55.639Z,100165.06
2022-08-08T04:37:32.987Z,100221.34
2022-08-08T04:40:12.794Z,100233.91
2022-08-08T04:42:56.837Z,100195.19
2022-08-08T04:45:35.010Z,100242.81
2022-08-08T04:48:07.349Z,100228.13
2022-08-08T04:50:44.533Z,100188.81
2022-08-08T04:54:26.916Z,100240.69
2022-08-08T04:56:13.662Z,100237.19
2022-08-08T04:58:43.588Z,100217.00
2022-08-08T05:01:19.452Z,100229.44
2022-08-08T05:04:10.299Z,100220.44
2022-08-08T05:06:47.084Z,100253.47
2022-08-08T05:09:21.079Z,100294.88
2022-08-08T05:11:56.697Z,100291.69
2022-08-08T05:14:30.535Z,100299.00
2022-08-08T05:17:09.051Z,100301.84
2022-08-08T05:20:10.794Z,100166.06
2022-08-08T05:22:38.876Z,100307.72
2022-08-08T05:25:09.709Z,100231.50
2022-08-08T05:27:41.455Z,100324.94
2022-08-08T05:30:13.900Z,100200.75
2022-08-08T05:33:03.318Z,100198.13
2022-08-08T05:35:39.668Z,100292.31
2022-08-08T05:38:31.592Z,100303.03
2022-08-08T05:41:11.301Z,100306.47
2022-08-08T05:44:03.907Z,100304.88
2022-08-08T05:46:35.411Z,100317.09
2022-08-08T05:49:11.372Z,100308.44
2022-08-08T05:51:48.846Z,100306.72
2022-08-08T05:54:49.676Z,100313.69
2022-08-08T05:57:20.925Z,100322.75
2022-08-08T06:00:25.373Z,100321.91
2022-08-08T06:03:13.131Z,100324.47
2022-08-08T06:06:01.195Z,100316.19
2022-08-08T06:08:36.481Z,100316.97
2022-08-08T06:11:13.361Z,100327.72
2022-08-08T06:13:49.285Z,100326.94
2022-08-08T06:16:27.642Z,100319.63
2022-08-08T06:19:03.868Z,100323.06
2022-08-08T06:21:51.771Z,100328.31
2022-08-08T06:24:38.342Z,100326.13
2022-08-08T06:27:13.101Z,100341.94
2022-08-08T06:30:01.060Z,100335.22
2022-08-08T06:32:47.603Z,100338.59
2022-08-08T06:36:08.601Z,100342.69
2022-08-08T06:38:18.904Z,100348.50
2022-08-08T06:40:56.433Z,100345.25
2022-08-08T06:43:37.115Z,100343.66
2022-08-08T06:46:23.714Z,100343.41
2022-08-08T06:48:57.392Z,100342.19
2022-08-08T06:51:31.373Z,100340.59
2022-08-08T06:54:24.917Z,100343.66
2022-08-08T06:56:58.815Z,100349.00
2022-08-08T06:59:34.499Z,100343.75
2022-08-08T07:02:28.749Z,100355.69
2022-08-08T07:05:06.996Z,100359.63
2022-08-08T07:07:52.175Z,100358.53
2022-08-08T07:10:28.520Z,100354.97
2022-08-08T07:13:06.127Z,100351.00
2022-08-08T07:16:04.879Z,100361.19
2022-08-08T07:18:49.489Z,100354.34
2022-08-08T07:21:24.585Z,100355.94
2022-08-08T07:24:09.570Z,100351.34
2022-08-08T07:26:54.169Z,100348.94
2022-08-08T07:30:00.975Z,100347.47
2022-08-08T07:32:17.403Z,100344.38
2022-08-08T07:35:01.381Z,100360.66
2022-08-08T07:37:55.454Z,100354.88
2022-08-08T07:40:50.628Z,100355.44
2022-08-08T07:43:36.919Z,100359.06
2022-08-08T07:46:23.128Z,100353.34
2022-08-08T07:49:01.189Z,100360.66
2022-08-08T07:51:45.425Z,100367.72
2022-08-08T07:54:43.141Z,100358.22
2022-08-08T07:57:22.096Z,100362.22
2022-08-08T08:00:13.355Z,100361.72
2022-08-08T08:03:20.716Z,100361.56
2022-08-08T08:06:01.557Z,100359.16
2022-08-08T08:08:50.259Z,100371.75
2022-08-08T08:11:33.836Z,100369.59
2022-08-08T08:14:10.925Z,100383.94
2022-08-08T08:16:50.792Z,100376.97
2022-08-08T08:19:32.060Z,100358.19
2022-08-08T08:22:31.271Z,100379.78
2022-08-08T08:25:07.515Z,100365.13
2022-08-08T08:27:46.724Z,100377.38
2022-08-08T08:30:17.567Z,100381.66
2022-08-08T08:32:51.807Z,100360.03
2022-08-08T08:35:29.916Z,100370.13
2022-08-08T08:38:18.191Z,100370.72
2022-08-08T08:40:59.073Z,100359.22
2022-08-08T08:43:30.845Z,100366.53
2022-08-08T08:46:03.581Z,100360.41
2022-08-08T08:48:49.193Z,100364.91
2022-08-08T08:51:21.922Z,100357.34
2022-08-08T08:53:59.193Z,100355.75
2022-08-08T08:56:34.166Z,100333.59
2022-08-08T08:59:15.329Z,100352.44
2022-08-08T09:01:55.359Z,100355.59
2022-08-08T09:04:38.527Z,100356.63
2022-08-08T09:07:20.730Z,100358.06
2022-08-08T09:09:55.318Z,100356.03
2022-08-08T09:12:41.795Z,100349.41
2022-08-08T09:15:37.020Z,100331.06
2022-08-08T09:18:06.088Z,100344.16
2022-08-08T09:22:00.704Z,100353.66
2022-08-08T09:23:33.562Z,100353.22
2022-08-08T09:26:17.893Z,100366.34
2022-08-08T09:28:51.534Z,100366.50
2022-08-08T09:31:56.577Z,100356.78
2022-08-08T09:34:37.769Z,100370.63
2022-08-08T09:37:37.345Z,100346.28
2022-08-08T09:40:13.589Z,100363.22
2022-08-08T09:42:51.127Z,100350.22
2022-08-08T09:45:54.952Z,100368.16
2022-08-08T09:48:21.403Z,100350.63
2022-08-08T09:50:56.205Z,100345.47
2022-08-08T09:53:56.516Z,100361.03
2022-08-08T09:56:27.792Z,100361.91
2022-08-08T09:59:14.908Z,100334.00
2022-08-08T10:01:59.362Z,100368.06
2022-08-08T10:04:41.439Z,100360.31
2022-08-08T10:07:15.876Z,100347.56
2022-08-08T10:10:00.015Z,100344.94
2022-08-08T10:12:38.794Z,100338.56
2022-08-08T10:15:25.436Z,100338.09
2022-08-08T10:18:06.585Z,100336.53
2022-08-08T10:20:57.646Z,100369.75
2022-08-08T10:23:48.321Z,100363.44
2022-08-08T10:26:30.563Z,100338.97
2022-08-08T10:29:21.117Z,100355.41
2022-08-08T10:32:12.431Z,100355.78
2022-08-08T10:34:58.725Z,100374.94
2022-08-08T10:37:34.719Z,100379.97
2022-08-08T10:40:17.527Z,100378.66
2022-08-08T10:42:57.145Z,100365.25
2022-08-08T10:45:29.293Z,100369.56
2022-08-08T10:48:13.665Z,100372.03
2022-08-08T10:50:42.946Z,100366.28
2022-08-08T10:53:13.431Z,100379.41
2022-08-08T10:55:45.743Z,100361.38
2022-08-08T10:58:18.773Z,100373.47
2022-08-08T11:00:53.619Z,100354.47
2022-08-08T11:04:00.932Z,100354.09
2022-08-08T11:06:34.491Z,100359.22
2022-08-08T11:09:15.146Z,100337.41
2022-08-08T11:12:05.099Z,100362.50
2022-08-08T11:14:53.145Z,100325.47
2022-08-08T11:17:58.392Z,100354.97
2022-08-08T11:20:18.311Z,100358.03
2022-08-08T11:22:54.968Z,100351.97
2022-08-08T11:25:53.449Z,100351.03
2022-08-08T11:28:18.666Z,100359.56
2022-08-08T11:30:53.008Z,100366.91
2022-08-08T11:33:51.651Z,100370.47
2022-08-08T11:36:17.763Z,100366.25
2022-08-08T11:38:54.726Z,100346.66
2022-08-08T11:41:27.689Z,100366.97
2022-08-08T11:43:58.618Z,100376.81
2022-08-08T11:46:34.064Z,100366.25
2022-08-08T11:49:05.552Z,100367.75
2022-08-08T11:51:49.920Z,100381.09
2022-08-08T11:54:33.975Z,100372.81
2022-08-08T11:57:13.837Z,100366.50
2022-08-08T12:00:02.087Z,100379.66
2022-08-08T12:02:54.373Z,100379.47
2022-08-08T12:05:34.409Z,100372.00
2022-08-08T12:08:05.957Z,100366.63
2022-08-08T12:10:36.309Z,100350.72
2022-08-08T12:13:09.723Z,100360.34
2022-08-08T12:15:47.812Z,100372.34
2022-08-08T12:18:35.400Z,100359.31
2022-08-08T12:21:10.327Z,100357.53
2022-08-08T12:23:51.847Z,100331.31
2022-08-08T12:26:38.690Z,100361.88
2022-08-08T12:29:36.216Z,100352.84
2022-08-08T12:32:13.416Z,100370.41
2022-08-08T12:35:13.285Z,100368.94
2022-08-08T12:38:02.393Z,100343.84
2022-08-08T12:40:54.399Z,100362.00
2022-08-08T12:43:32.828Z,100358.06
2022-08-08T12:46:19.215Z,100357.59
2022-08-08T12:57:31.944Z,100367.31
2022-08-08T13:00:13.532Z,100370.03
2022-08-08T13:02:53.121Z,100347.22
2022-08-08T13:05:26.569Z,100355.47
2022-08-08T13:08:17.236Z,100378.84
2022-08-08T13:10:58.285Z,100375.94
2022-08-08T13:13:34.617Z,100367.81
2022-08-08T13:16:19.702Z,100368.94
2022-08-08T13:18:58.338Z,100375.63
2022-08-08T13:21:49.045Z,100372.91
2022-08-08T13:24:40.714Z,100378.28
2022-08-08T13:27:15.262Z,100378.25
2022-08-08T13:29:55.408Z,100350.06
2022-08-08T13:32:26.252Z,100381.41
2022-08-08T13:34:57.462Z,100382.50
2022-08-08T13:38:05.801Z,100350.97
2022-08-08T13:40:26.547Z,100368.94
2022-08-08T13:42:58.571Z,100322.00
2022-08-08T13:45:30.762Z,100390.53
2022-08-08T13:48:01.313Z,100360.09
2022-08-08T13:50:49.132Z,100361.25
2022-08-08T13:53:33.793Z,100389.47
2022-08-08T13:56:11.194Z,100377.88
2022-08-08T13:58:56.252Z,100374.75
2022-08-08T14:01:52.573Z,100367.63
2022-08-08T14:04:25.300Z,100350.06
2022-08-08T14:07:06.933Z,100368.28
2022-08-08T14:10:05.665Z,100333.50
2022-08-08T14:12:33.807Z,100339.25
2022-08-08T14:15:03.388Z,100376.94
2022-08-08T14:17:58.184Z,100343.00
2022-08-08T14:20:55.874Z,100355.09
2022-08-08T14:24:06.849Z,100342.91
2022-08-08T14:26:28.029Z,100358.78
2022-08-08T14:28:58.795Z,100360.94
2022-08-08T14:32:05.833Z,100361.56
2022-08-08T14:34:23.268Z,100372.78
2022-08-08T14:36:57.230Z,100383.41
2022-08-08T14:39:48.348Z,100377.84
2022-08-08T14:42:22.323Z,100364.69
2022-08-08T14:45:01.059Z,100355.22
2022-08-08T14:47:36.197Z,100353.41
2022-08-08T14:50:38.354Z,100364.94
2022-08-08T14:53:07.162Z,100361.31
2022-08-08T14:55:41.987Z,100353.06
2022-08-08T14:58:16.600Z,100373.47
2022-08-08T15:00:51.999Z,100367.59
2022-08-08T15:03:21.214Z,100364.81
2022-08-08T15:05:57.832Z,100367.06
2022-08-08T15:08:34.880Z,100359.47
2022-08-08T15:11:11.270Z,100368.84
2022-08-08T15:14:00.846Z,100354.91
2022-08-08T15:16:34.718Z,100368.19
2022-08-08T15:19:06.960Z,100360.56
2022-08-08T15:21:42.817Z,100360.88
2022-08-08T15:24:14.253Z,100361.31
2022-08-08T15:26:52.428Z,100360.19
2022-08-08T15:29:24.222Z,100352.09
2022-08-08T15:32:17.925Z,100359.56
2022-08-08T15:34:44.079Z,100347.53
2022-08-08T15:37:17.206Z,100351.88
2022-08-08T15:39:47.903Z,100346.59
2022-08-08T15:42:32.330Z,100357.34
2022-08-08T15:45:02.747Z,100361.16
2022-08-08T15:47:34.916Z,100334.19
2022-08-08T15:50:09.618Z,100336.38
2022-08-08T15:52:53.642Z,100350.34
2022-08-08T15:55:25.248Z,100331.47
2022-08-08T15:57:55.204Z,100351.41
2022-08-08T16:00:26.908Z,100347.50
2022-08-08T16:02:59.379Z,100357.53
2022-08-08T16:05:35.831Z,100362.88
2022-08-08T16:08:20.958Z,100361.38
2022-08-08T16:13:15.517Z,100357.50
2022-08-08T16:13:45.972Z,100356.56
2022-08-08T16:16:18.102Z,100347.75
2022-08-08T16:18:53.439Z,100349.59
2022-08-08T16:21:29.323Z,100325.81
2022-08-08T16:24:04.729Z,100344.09
2022-08-08T16:26:36.416Z,100346.13
2022-08-08T16:29:15.485Z,100342.59
2022-08-08T16:31:48.864Z,100350.44
2022-08-08T16:34:21.143Z,100346.75
2022-08-08T16:36:54.111Z,100356.34
2022-08-08T16:39:59.615Z,100363.94
2022-08-08T16:42:18.509Z,100359.97
2022-08-08T16:44:54.507Z,100359.00
2022-08-08T16:47:40.205Z,100366.97
2022-08-08T16:50:15.535Z,100354.59
2022-08-08T16:55:03.547Z,100383.88
2022-08-08T16:55:55.572Z,100382.19
2022-08-08T16:58:34.313Z,100397.44
2022-08-08T17:01:06.191Z,100374.13
2022-08-08T17:04:00.638Z,100383.97
2022-08-08T17:06:37.252Z,100383.66
2022-08-08T17:09:15.063Z,100392.72
2022-08-08T17:11:56.599Z,100397.91
2022-08-08T17:14:33.868Z,100400.88
2022-08-08T17:17:05.642Z,100402.09
2022-08-08T17:19:56.001Z,100403.13
2022-08-08T17:22:39.308Z,100398.00
2022-08-08T17:25:12.078Z,100404.19
2022-08-08T17:27:47.623Z,100400.81
2022-08-08T17:30:27.630Z,100398.25
2022-08-08T17:34:35.792Z,100414.94
2022-08-08T17:35:55.680Z,100406.00
2022-08-08T17:38:36.458Z,100387.50
2022-08-08T17:41:06.190Z,100387.38
2022-08-08T17:44:01.238Z,100382.56
2022-08-08T17:46:43.075Z,100367.91
2022-08-08T17:49:16.532Z,100405.75
2022-08-08T17:51:53.938Z,100402.25
2022-08-08T17:54:26.057Z,100394.22
2022-08-08T17:56:58.757Z,100391.03
2022-08-08T17:59:30.537Z,100393.78
2022-08-08T18:02:11.306Z,100389.44
2022-08-08T18:04:50.752Z,100379.59
2022-08-08T18:08:04.063Z,100396.97
2022-08-08T18:10:10.636Z,100395.34
2022-08-08T18:12:40.113Z,100398.91
2022-08-08T18:15:14.555Z,100406.91
2022-08-08T18:18:09.882Z,100416.25
2022-08-08T18:20:43.804Z,100413.19
2022-08-08T18:23:23.344Z,100378.16
2022-08-08T18:25:53.307Z,100402.81
2022-08-08T18:28:23.525Z,100395.13
2022-08-08T18:30:57.444Z,100415.44
2022-08-08T18:34:12.267Z,100405.31
2022-08-08T18:36:22.837Z,100405.25
2022-08-08T18:38:53.916Z,100388.94
2022-08-08T18:41:51.361Z,100402.63
2022-08-08T18:44:12.960Z,100400.78
2022-08-08T18:46:54.320Z,100403.84
2022-08-08T18:49:32.220Z,100380.34
2022-08-08T18:52:22.395Z,100386.56
2022-08-08T18:55:01.052Z,100385.72
2022-08-08T18:57:44.748Z,100405.97
2022-08-08T19:00:20.170Z,100382.00
2022-08-08T19:02:57.835Z,100415.56
2022-08-08T19:05:38.571Z,100415.50
2022-08-08T19:08:25.175Z,100405.19
2022-08-08T19:11:02.282Z,100395.59
2022-08-08T19:13:53.014Z,100396.66
2022-08-08T19:16:28.547Z,100380.84
2022-08-08T19:19:13.494Z,100386.72
2022-08-08T19:21:49.920Z,100361.03
2022-08-08T19:24:49.370Z,100373.50
2022-08-08T19:27:10.773Z,100357.97
2022-08-08T19:29:42.190Z,100379.41
2022-08-08T19:32:13.165Z,100389.19
2022-08-08T19:34:51.520Z,100380.53
2022-08-08T19:37:42.314Z,100389.31
2022-08-08T19:40:14.645Z,100388.75
2022-08-08T19:42:47.228Z,100390.28
2022-08-08T19:45:58.861Z,100365.09
2022-08-08T19:48:29.096Z,100374.56
2022-08-08T19:51:01.731Z,100390.44
2022-08-08T19:53:51.358Z,100396.50
2022-08-08T19:56:25.709Z,100399.19
2022-08-08T19:59:10.167Z,100392.69
2022-08-08T20:02:00.935Z,100359.69
2022-08-08T20:04:34.089Z,100361.25
2022-08-08T20:08:39.312Z,100368.34
2022-08-08T20:09:58.507Z,100354.56
2022-08-08T20:12:32.786Z,100358.50
2022-08-08T20:15:14.855Z,100343.06
2022-08-08T20:17:48.116Z,100345.69
2022-08-08T20:20:20.479Z,100364.22
2022-08-08T20:22:56.080Z,100330.41
2022-08-08T20:25:29.876Z,100337.50
2022-08-08T20:28:05.703Z,100366.97
2022-08-08T20:30:53.427Z,100364.50
2022-08-08T20:35:58.011Z,100372.06
2022-08-08T20:38:37.089Z,100388.22
2022-08-08T20:41:17.479Z,100343.22
2022-08-08T20:43:50.227Z,100370.59
2022-08-08T20:46:25.314Z,100368.97
2022-08-08T20:48:58.538Z,100361.84
2022-08-08T20:51:32.328Z,100377.75
2022-08-08T20:54:14.124Z,100364.66
2022-08-08T20:57:04.006Z,100356.09
2022-08-08T20:59:41.031Z,100354.25
2022-08-08T21:02:12.501Z,100363.25
2022-08-08T21:04:43.121Z,100377.50
2022-08-08T21:07:17.301Z,100370.56
2022-08-08T21:10:13.002Z,100354.91
2022-08-08T21:12:45.960Z,100361.34
2022-08-08T21:16:04.970Z,100370.38
2022-08-08T21:18:06.171Z,100392.94
2022-08-08T21:20:36.455Z,100371.81
2022-08-08T21:23:09.310Z,100367.88
2022-08-08T21:25:40.817Z,100347.88
2022-08-08T21:28:15.960Z,100374.06
2022-08-08T21:30:51.909Z,100387.19
2022-08-08T21:33:22.318Z,100377.78
2022-08-08T21:36:18.258Z,100381.41
2022-08-08T21:38:41.085Z,100422.31
2022-08-08T21:41:28.795Z,100442.50
2022-08-08T21:44:04.505Z,100485.03
2022-08-08T21:48:06.186Z,100499.88
2022-08-08T21:49:23.789Z,100519.66
2022-08-08T21:54:20.243Z,100518.91
2022-08-08T21:55:01.719Z,100533.88
2022-08-08T21:57:42.902Z,100477.44
2022-08-08T22:00:26.080Z,100421.31
2022-08-08T22:02:55.712Z,100467.13
2022-08-08T22:05:25.045Z,100464.66
2022-08-08T22:08:00.313Z,100450.03
2022-08-08T22:10:32.643Z,100423.78
2022-08-08T22:13:18.565Z,100421.31
2022-08-08T22:16:00.427Z,100405.72
2022-08-08T22:18:33.121Z,100422.03
2022-08-08T22:21:14.648Z,100419.31
2022-08-08T22:23:51.469Z,100412.50
2022-08-08T22:26:29.390Z,100406.34
2022-08-08T22:29:57.074Z,100396.63
2022-08-08T22:32:01.526Z,100402.66
2022-08-08T22:34:39.456Z,100422.56
2022-08-08T22:37:14.802Z,100400.03
2022-08-08T22:40:00.324Z,100401.38
2022-08-08T22:42:34.457Z,100396.16
2022-08-08T22:45:12.620Z,100380.13
2022-08-08T22:47:46.863Z,100373.78
2022-08-08T22:50:25.961Z,100365.00
2022-08-08T22:53:22.551Z,100367.53
2022-08-08T22:55:58.034Z,100358.94
2022-08-08T22:58:31.245Z,100377.31
2022-08-08T23:01:30.588Z,100380.78
2022-08-08T23:03:55.982Z,100393.00
2022-08-08T23:06:25.716Z,100385.50
2022-08-08T23:09:00.200Z,100388.34
2022-08-08T23:12:17.761Z,100384.94
2022-08-08T23:14:22.051Z,100371.88
2022-08-08T23:16:59.387Z,100395.09
2022-08-08T23:19:30.713Z,100417.88
2022-08-08T23:22:01.876Z,100420.63
2022-08-08T23:24:36.218Z,100424.66
2022-08-08T23:27:06.643Z,100436.09
2022-08-08T23:29:35.862Z,100456.13
2022-08-08T23:32:10.230Z,100474.44
2022-08-08T23:34:49.640Z,100470.94
2022-08-08T23:38:00.653Z,100478.75
2022-08-08T23:40:22.688Z,100468.13
2022-08-08T23:42:52.333Z,100456.63
2022-08-08T23:49:00.078Z,100448.66
2022-08-08T23:49:02.865Z,100408.88
2022-08-08T23:51:02.285Z,100402.34
2022-08-08T23:54:05.358Z,100390.41
2022-08-08T23:56:32.383Z,100365.38
2022-08-08T23:59:04.322Z,100353.97
